F/V Sterenn — FIYL — position and weather

sailwx.info

Track history (hours):
 
Tides and Currents Weather Stations Pressure Air Temp Water Temp Dewpoint Dewpoint Depression Visibility Wind Speed Wind Dir Waves Ship Positions

F/V Sterenn

Last reported at 2017-Oct-14 16:22 UTC. Time now 2017-Nov-24 07:17 UTC.
Position N 04°10' W 002°53'.
Warning: this ship's position is 40 days out of date.

Length 68 m; draft 6.5 m.

Type: Fishing. MMSI: 226180000.

Date/timePositionNaut miles runAvg speedWind from/ knotsBaromVisibWave heightAir tempDewpointWater temp
2017-Oct-14 16:22N 04°10' W 002°53'  
2017-Oct-10 10:36N 04°30' W 003°06'112.2
2017-Oct-10 10:30N 04°29' W 003°05'612.3
2017-Oct-10 10:00N 04°26' W 003°00'612.3
2017-Oct-10 09:30N 04°22' W 002°56'4 6.8
2017-Oct-10 08:59N 04°20' W 002°53'0 0.5
2017-Oct-10 08:30N 04°19' W 002°53'0 0.5
2017-Oct-10 08:00N 04°19' W 002°53'0 0.4
2017-Oct-10 07:29N 04°19' W 002°52'0 0.4
2017-Oct-10 07:00N 04°19' W 002°52'1 2.1
2017-Oct-10 06:30N 04°20' W 002°51'510.5
2017-Oct-10 05:59N 04°20' W 002°46'611.5
2017-Oct-10 05:29N 04°18' W 002°40'511.5
2017-Oct-10 05:00N 04°17' W 002°35'611.6
2017-Oct-10 04:30N 04°15' W 002°30'611.5
2017-Oct-10 03:59N 04°13' W 002°24'  
Track history (hours):
 
Tides and Currents Weather Stations Pressure Air Temp Water Temp Dewpoint Dewpoint Depression Visibility Wind Speed Wind Dir Waves Ship Positions

F/V Sterenn

Last reported at 2017-Oct-14 16:22 UTC. Time now 2017-Nov-24 07:17 UTC.
Position N 04°10' W 002°53'.
Warning: this ship's position is 40 days out of date.

Length 68 m; draft 6.5 m.

Type: Fishing. MMSI: 226180000.

Date/timePositionNaut miles runAvg speedWind from/ knotsBaromVisibWave heightAir tempDewpointWater temp
2017-Oct-14 16:22N 04°10' W 002°53'  
2017-Oct-10 10:36N 04°30' W 003°06'112.2
2017-Oct-10 10:30N 04°29' W 003°05'612.3
2017-Oct-10 10:00N 04°26' W 003°00'612.3
2017-Oct-10 09:30N 04°22' W 002°56'4 6.8
2017-Oct-10 08:59N 04°20' W 002°53'0 0.5
2017-Oct-10 08:30N 04°19' W 002°53'0 0.5
2017-Oct-10 08:00N 04°19' W 002°53'0 0.4
2017-Oct-10 07:29N 04°19' W 002°52'0 0.4
2017-Oct-10 07:00N 04°19' W 002°52'1 2.1
2017-Oct-10 06:30N 04°20' W 002°51'510.5
2017-Oct-10 05:59N 04°20' W 002°46'611.5
2017-Oct-10 05:29N 04°18' W 002°40'511.5
2017-Oct-10 05:00N 04°17' W 002°35'611.6
2017-Oct-10 04:30N 04°15' W 002°30'611.5
2017-Oct-10 03:59N 04°13' W 002°24'  

Dump ship's entire track history